sensor_id;sensor_type;location;lat;lon;timestamp;pressure;altitude;pressure_sealevel;temperature;humidity
37634;BME280;32048;49.902;22.508;2023-02-18T00:00:29;98090.25;;;5.29;100.00
37634;BME280;32048;49.902;22.508;2023-02-18T00:03:16;98087.56;;;5.31;100.00
37634;BME280;32048;49.902;22.508;2023-02-18T00:05:43;98088.47;;;5.30;100.00
37634;BME280;32048;49.902;22.508;2023-02-18T00:08:10;98087.75;;;5.26;100.00
37634;BME280;32048;49.902;22.508;2023-02-18T00:10:40;98094.75;;;5.26;100.00
37634;BME280;32048;49.902;22.508;2023-02-18T00:13:08;98092.13;;;5.26;100.00
37634;BME280;32048;49.902;22.508;2023-02-18T00:15:36;98102.22;;;5.35;100.00
37634;BME280;32048;49.902;22.508;2023-02-18T00:18:04;98098.56;;;5.39;100.00
37634;BME280;32048;49.902;22.508;2023-02-18T00:20:31;98101.19;;;5.39;100.00
37634;BME280;32048;49.902;22.508;2023-02-18T00:22:59;98098.72;;;5.36;100.00
37634;BME280;32048;49.902;22.508;2023-02-18T00:25:26;98109.88;;;5.39;100.00
37634;BME280;32048;49.902;22.508;2023-02-18T00:27:53;98104.59;;;5.41;100.00
37634;BME280;32048;49.902;22.508;2023-02-18T00:30:20;98097.53;;;5.43;100.00
37634;BME280;32048;49.902;22.508;2023-02-18T00:32:47;98109.59;;;5.47;100.00
37634;BME280;32048;49.902;22.508;2023-02-18T00:35:14;98110.22;;;5.52;100.00
37634;BME280;32048;49.902;22.508;2023-02-18T00:37:41;98103.16;;;5.54;100.00
37634;BME280;32048;49.902;22.508;2023-02-18T00:40:08;98101.41;;;5.55;100.00
37634;BME280;32048;49.902;22.508;2023-02-18T00:42:36;98084.63;;;5.59;100.00
37634;BME280;32048;49.902;22.508;2023-02-18T00:45:03;98089.78;;;5.60;100.00
37634;BME280;32048;49.902;22.508;2023-02-18T00:47:30;98088.88;;;5.61;100.00
37634;BME280;32048;49.902;22.508;2023-02-18T00:49:57;98087.00;;;5.65;100.00
37634;BME280;32048;49.902;22.508;2023-02-18T00:52:24;98083.59;;;5.63;100.00
37634;BME280;32048;49.902;22.508;2023-02-18T00:54:51;98068.66;;;5.65;100.00
37634;BME280;32048;49.902;22.508;2023-02-18T00:57:18;98068.00;;;5.60;100.00
37634;BME280;32048;49.902;22.508;2023-02-18T00:59:45;98074.22;;;5.57;100.00
37634;BME280;32048;49.902;22.508;2023-02-18T01:02:12;98051.63;;;5.55;100.00
37634;BME280;32048;49.902;22.508;2023-02-18T01:04:39;98056.81;;;5.56;100.00
37634;BME280;32048;49.902;22.508;2023-02-18T01:07:07;98054.25;;;5.55;100.00
37634;BME280;32048;49.902;22.508;2023-02-18T01:09:36;98039.13;;;5.61;100.00
37634;BME280;32048;49.902;22.508;2023-02-18T01:12:03;98039.78;;;5.67;100.00
37634;BME280;32048;49.902;22.508;2023-02-18T01:14:30;98033.47;;;5.71;100.00
37634;BME280;32048;49.902;22.508;2023-02-18T01:16:57;98040.28;;;5.75;100.00
37634;BME280;32048;49.902;22.508;2023-02-18T01:19:24;98045.34;;;5.79;100.00
37634;BME280;32048;49.902;22.508;2023-02-18T01:21:51;98047.22;;;5.76;100.00
37634;BME280;32048;49.902;22.508;2023-02-18T01:24:18;98051.31;;;5.83;100.00
37634;BME280;32048;49.902;22.508;2023-02-18T01:26:46;98046.97;;;5.82;100.00
37634;BME280;32048;49.902;22.508;2023-02-18T01:29:12;98060.00;;;5.83;100.00
37634;BME280;32048;49.902;22.508;2023-02-18T01:31:40;98047.09;;;5.79;100.00
37634;BME280;32048;49.902;22.508;2023-02-18T01:34:07;98060.31;;;5.76;100.00
37634;BME280;32048;49.902;22.508;2023-02-18T01:36:34;98061.91;;;5.80;100.00
37634;BME280;32048;49.902;22.508;2023-02-18T01:39:01;98057.50;;;5.80;100.00
37634;BME280;32048;49.902;22.508;2023-02-18T01:41:28;98051.22;;;5.84;100.00
37634;BME280;32048;49.902;22.508;2023-02-18T01:44:16;98045.06;;;5.86;100.00
37634;BME280;32048;49.902;22.508;2023-02-18T01:46:44;98037.84;;;5.91;100.00
37634;BME280;32048;49.902;22.508;2023-02-18T01:49:16;98049.00;;;5.96;100.00
37634;BME280;32048;49.902;22.508;2023-02-18T01:51:49;98055.31;;;6.30;100.00
37634;BME280;32048;49.902;22.508;2023-02-18T01:54:32;98033.78;;;6.61;100.00
37634;BME280;32048;49.902;22.508;2023-02-18T01:57:09;98025.78;;;6.81;100.00
37634;BME280;32048;49.902;22.508;2023-02-18T01:59:45;98021.81;;;6.92;100.00
37634;BME280;32048;49.902;22.508;2023-02-18T02:02:17;98020.66;;;6.97;100.00
37634;BME280;32048;49.902;22.508;2023-02-18T02:04:45;98013.94;;;7.09;100.00
37634;BME280;32048;49.902;22.508;2023-02-18T02:07:12;98022.38;;;7.16;100.00
37634;BME280;32048;49.902;22.508;2023-02-18T02:09:40;98006.22;;;7.23;100.00
37634;BME280;32048;49.902;22.508;2023-02-18T02:37:41;98009.41;;;7.81;100.00
37634;BME280;32048;49.902;22.508;2023-02-18T02:46:17;98033.31;;;7.76;100.00
37634;BME280;32048;49.902;22.508;2023-02-18T02:51:42;98007.34;;;7.70;100.00
37634;BME280;32048;49.902;22.508;2023-02-18T02:54:20;98026.69;;;7.69;100.00
37634;BME280;32048;49.902;22.508;2023-02-18T02:56:48;98039.88;;;7.67;100.00
37634;BME280;32048;49.902;22.508;2023-02-18T02:59:18;98030.47;;;7.63;100.00
37634;BME280;32048;49.902;22.508;2023-02-18T03:04:50;98016.72;;;7.58;100.00
37634;BME280;32048;49.902;22.508;2023-02-18T03:12:45;98049.50;;;7.51;100.00
37634;BME280;32048;49.902;22.508;2023-02-18T03:31:52;98090.19;;;7.60;100.00
37634;BME280;32048;49.902;22.508;2023-02-18T03:34:31;98111.84;;;7.47;100.00
37634;BME280;32048;49.902;22.508;2023-02-18T03:37:00;98108.72;;;7.39;100.00
37634;BME280;32048;49.902;22.508;2023-02-18T03:39:31;98101.81;;;7.19;100.00
37634;BME280;32048;49.902;22.508;2023-02-18T03:41:58;98111.25;;;7.23;100.00
37634;BME280;32048;49.902;22.508;2023-02-18T03:44:26;98122.06;;;7.17;100.00
37634;BME280;32048;49.902;22.508;2023-02-18T03:46:52;98130.31;;;7.10;100.00
37634;BME280;32048;49.902;22.508;2023-02-18T03:49:20;98124.91;;;7.13;100.00
37634;BME280;32048;49.902;22.508;2023-02-18T03:51:47;98131.38;;;7.05;100.00
37634;BME280;32048;49.902;22.508;2023-02-18T03:54:14;98130.81;;;6.99;100.00
37634;BME280;32048;49.902;22.508;2023-02-18T03:56:41;98125.00;;;6.92;100.00
37634;BME280;32048;49.902;22.508;2023-02-18T03:59:10;98146.66;;;6.97;100.00
37634;BME280;32048;49.902;22.508;2023-02-18T04:01:37;98148.28;;;7.00;100.00
37634;BME280;32048;49.902;22.508;2023-02-18T04:04:05;98151.41;;;6.89;100.00
37634;BME280;32048;49.902;22.508;2023-02-18T04:06:32;98160.19;;;6.88;100.00
37634;BME280;32048;49.902;22.508;2023-02-18T04:08:59;98154.38;;;6.81;100.00
37634;BME280;32048;49.902;22.508;2023-02-18T04:11:26;98154.88;;;6.90;100.00
37634;BME280;32048;49.902;22.508;2023-02-18T04:13:53;98177.78;;;6.86;95.45
37634;BME280;32048;49.902;22.508;2023-02-18T04:16:20;98169.63;;;6.92;93.61
37634;BME280;32048;49.902;22.508;2023-02-18T04:18:47;98168.00;;;6.90;92.13
37634;BME280;32048;49.902;22.508;2023-02-18T04:21:14;98165.53;;;6.86;90.40
37634;BME280;32048;49.902;22.508;2023-02-18T04:23:41;98169.91;;;6.86;90.54
37634;BME280;32048;49.902;22.508;2023-02-18T04:26:08;98180.34;;;6.87;89.31
37634;BME280;32048;49.902;22.508;2023-02-18T04:28:36;98198.78;;;6.86;87.79
37634;BME280;32048;49.902;22.508;2023-02-18T04:31:03;98201.34;;;6.87;86.55
37634;BME280;32048;49.902;22.508;2023-02-18T04:33:31;98203.31;;;6.82;86.83
37634;BME280;32048;49.902;22.508;2023-02-18T04:35:58;98208.00;;;6.76;87.09
37634;BME280;32048;49.902;22.508;2023-02-18T04:38:25;98211.75;;;6.70;87.76
37634;BME280;32048;49.902;22.508;2023-02-18T04:40:52;98222.38;;;6.67;86.49
37634;BME280;32048;49.902;22.508;2023-02-18T04:43:19;98212.03;;;6.64;87.32
37634;BME280;32048;49.902;22.508;2023-02-18T04:45:46;98208.41;;;6.66;84.45
37634;BME280;32048;49.902;22.508;2023-02-18T04:48:13;98219.75;;;6.67;84.60
37634;BME280;32048;49.902;22.508;2023-02-18T04:50:40;98197.00;;;6.68;85.42
37634;BME280;32048;49.902;22.508;2023-02-18T04:53:08;98209.47;;;6.62;85.97
37634;BME280;32048;49.902;22.508;2023-02-18T04:55:35;98220.03;;;6.61;85.43
37634;BME280;32048;49.902;22.508;2023-02-18T04:58:02;98220.31;;;6.55;85.22
37634;BME280;32048;49.902;22.508;2023-02-18T05:00:29;98222.84;;;6.56;85.70
37634;BME280;32048;49.902;22.508;2023-02-18T05:02:56;98229.28;;;6.49;84.79
37634;BME280;32048;49.902;22.508;2023-02-18T05:05:23;98226.69;;;6.49;85.56
37634;BME280;32048;49.902;22.508;2023-02-18T05:07:50;98219.00;;;6.44;85.42
37634;BME280;32048;49.902;22.508;2023-02-18T05:43:16;98252.84;;;6.51;75.84
37634;BME280;32048;49.902;22.508;2023-02-18T05:45:44;98260.91;;;6.46;77.19
37634;BME280;32048;49.902;22.508;2023-02-18T05:48:14;98260.38;;;6.38;76.65
37634;BME280;32048;49.902;22.508;2023-02-18T05:50:42;98267.53;;;6.34;75.21
37634;BME280;32048;49.902;22.508;2023-02-18T05:53:11;98270.94;;;6.36;74.41
37634;BME280;32048;49.902;22.508;2023-02-18T05:55:45;98264.06;;;6.34;73.68
37634;BME280;32048;49.902;22.508;2023-02-18T05:58:14;98267.72;;;6.30;72.41
37634;BME280;32048;49.902;22.508;2023-02-18T06:00:43;98257.97;;;6.33;72.32
37634;BME280;32048;49.902;22.508;2023-02-18T06:03:10;98271.31;;;6.27;72.18
37634;BME280;32048;49.902;22.508;2023-02-18T06:05:39;98257.38;;;6.27;71.91
37634;BME280;32048;49.902;22.508;2023-02-18T06:08:10;98261.69;;;6.28;71.36
37634;BME280;32048;49.902;22.508;2023-02-18T06:10:39;98271.97;;;6.32;71.15
37634;BME280;32048;49.902;22.508;2023-02-18T06:13:06;98281.56;;;6.33;70.20
37634;BME280;32048;49.902;22.508;2023-02-18T06:15:33;98269.25;;;6.35;71.02
37634;BME280;32048;49.902;22.508;2023-02-18T06:18:00;98266.28;;;6.43;70.68
37634;BME280;32048;49.902;22.508;2023-02-18T06:20:27;98267.41;;;6.58;68.28
37634;BME280;32048;49.902;22.508;2023-02-18T06:22:54;98273.41;;;6.80;67.02
37634;BME280;32048;49.902;22.508;2023-02-18T06:25:21;98274.78;;;7.08;65.40
37634;BME280;32048;49.902;22.508;2023-02-18T06:27:48;98261.56;;;7.28;63.53
37634;BME280;32048;49.902;22.508;2023-02-18T06:30:15;98276.28;;;7.33;64.62
37634;BME280;32048;49.902;22.508;2023-02-18T06:32:43;98270.03;;;7.35;62.54
37634;BME280;32048;49.902;22.508;2023-02-18T06:35:10;98272.88;;;7.31;62.83
37634;BME280;32048;49.902;22.508;2023-02-18T06:37:37;98270.97;;;7.34;63.22
37634;BME280;32048;49.902;22.508;2023-02-18T06:40:05;98276.41;;;7.48;62.50
37634;BME280;32048;49.902;22.508;2023-02-18T06:42:32;98288.53;;;7.70;59.98
37634;BME280;32048;49.902;22.508;2023-02-18T06:45:00;98295.00;;;7.99;57.92
37634;BME280;32048;49.902;22.508;2023-02-18T06:47:27;98298.16;;;8.42;55.19
37634;BME280;32048;49.902;22.508;2023-02-18T06:49:54;98285.38;;;8.69;52.96
37634;BME280;32048;49.902;22.508;2023-02-18T06:52:21;98300.16;;;9.05;53.13
37634;BME280;32048;49.902;22.508;2023-02-18T06:54:48;98276.53;;;9.69;51.07
37634;BME280;32048;49.902;22.508;2023-02-18T06:57:15;98280.53;;;10.06;47.49
37634;BME280;32048;49.902;22.508;2023-02-18T06:59:42;98278.88;;;10.35;46.60
37634;BME280;32048;49.902;22.508;2023-02-18T07:02:12;98268.31;;;10.80;45.33
37634;BME280;32048;49.902;22.508;2023-02-18T07:04:39;98279.72;;;11.09;45.21
37634;BME280;32048;49.902;22.508;2023-02-18T07:07:06;98282.31;;;11.52;44.50
37634;BME280;32048;49.902;22.508;2023-02-18T07:09:33;98280.06;;;11.60;43.25
37634;BME280;32048;49.902;22.508;2023-02-18T07:12:00;98280.75;;;11.77;42.47
37634;BME280;32048;49.902;22.508;2023-02-18T07:14:27;98257.47;;;11.69;43.64
37634;BME280;32048;49.902;22.508;2023-02-18T07:16:54;98272.06;;;11.75;43.38
37634;BME280;32048;49.902;22.508;2023-02-18T07:19:22;98266.31;;;11.82;43.47
37634;BME280;32048;49.902;22.508;2023-02-18T07:21:49;98266.97;;;11.44;43.72
37634;BME280;32048;49.902;22.508;2023-02-18T07:24:17;98277.28;;;11.76;43.89
37634;BME280;32048;49.902;22.508;2023-02-18T07:26:43;98259.59;;;11.77;43.11
37634;BME280;32048;49.902;22.508;2023-02-18T07:29:11;98250.97;;;11.60;42.69
37634;BME280;32048;49.902;22.508;2023-02-18T07:31:38;98259.59;;;11.91;42.40
37634;BME280;32048;49.902;22.508;2023-02-18T07:34:05;98273.59;;;12.33;42.14
37634;BME280;32048;49.902;22.508;2023-02-18T07:36:32;98282.63;;;12.56;40.53
37634;BME280;32048;49.902;22.508;2023-02-18T07:38:59;98265.97;;;12.41;40.64
37634;BME280;32048;49.902;22.508;2023-02-18T07:41:26;98293.69;;;12.23;40.64
37634;BME280;32048;49.902;22.508;2023-02-18T07:43:59;98291.25;;;12.20;41.27
37634;BME280;32048;49.902;22.508;2023-02-18T07:46:26;98290.19;;;12.22;40.43
37634;BME280;32048;49.902;22.508;2023-02-18T07:48:53;98286.34;;;12.14;40.09
37634;BME280;32048;49.902;22.508;2023-02-18T07:51:20;98295.94;;;12.42;41.14
37634;BME280;32048;49.902;22.508;2023-02-18T07:53:47;98294.19;;;12.68;38.13
37634;BME280;32048;49.902;22.508;2023-02-18T07:56:14;98277.28;;;12.31;39.20
37634;BME280;32048;49.902;22.508;2023-02-18T07:58:41;98296.84;;;12.15;39.86
37634;BME280;32048;49.902;22.508;2023-02-18T08:01:11;98287.97;;;12.29;39.67
37634;BME280;32048;49.902;22.508;2023-02-18T08:03:41;98279.91;;;12.58;39.43
37634;BME280;32048;49.902;22.508;2023-02-18T08:06:22;98297.78;;;12.80;40.64
37634;BME280;32048;49.902;22.508;2023-02-18T08:08:51;98273.66;;;12.72;38.17
37634;BME280;32048;49.902;22.508;2023-02-18T08:11:18;98291.31;;;12.71;39.29
37634;BME280;32048;49.902;22.508;2023-02-18T08:13:47;98287.09;;;13.20;39.16
37634;BME280;32048;49.902;22.508;2023-02-18T08:16:16;98297.72;;;13.45;38.23
37634;BME280;32048;49.902;22.508;2023-02-18T08:18:44;98300.25;;;13.84;37.30
37634;BME280;32048;49.902;22.508;2023-02-18T08:21:13;98315.06;;;13.99;35.19
37634;BME280;32048;49.902;22.508;2023-02-18T08:23:41;98321.34;;;13.48;36.57
37634;BME280;32048;49.902;22.508;2023-02-18T08:26:08;98330.47;;;13.19;36.36
37634;BME280;32048;49.902;22.508;2023-02-18T08:28:36;98328.44;;;13.22;37.20
37634;BME280;32048;49.902;22.508;2023-02-18T08:31:03;98325.19;;;13.19;35.27
37634;BME280;32048;49.902;22.508;2023-02-18T08:33:31;98322.22;;;12.45;37.03
37634;BME280;32048;49.902;22.508;2023-02-18T08:35:59;98334.34;;;12.22;36.95
37634;BME280;32048;49.902;22.508;2023-02-18T08:38:26;98331.50;;;12.25;38.94
37634;BME280;32048;49.902;22.508;2023-02-18T08:41:01;98322.06;;;12.61;37.26
37634;BME280;32048;49.902;22.508;2023-02-18T08:43:30;98330.91;;;12.87;36.71
37634;BME280;32048;49.902;22.508;2023-02-18T08:45:57;98320.59;;;12.95;37.70
37634;BME280;32048;49.902;22.508;2023-02-18T08:48:25;98331.72;;;13.13;36.48
37634;BME280;32048;49.902;22.508;2023-02-18T08:50:52;98330.06;;;13.38;36.54
37634;BME280;32048;49.902;22.508;2023-02-18T08:53:20;98319.22;;;13.54;35.21
37634;BME280;32048;49.902;22.508;2023-02-18T08:55:47;98321.16;;;13.88;34.75
37634;BME280;32048;49.902;22.508;2023-02-18T08:58:14;98329.94;;;13.52;35.56
37634;BME280;32048;49.902;22.508;2023-02-18T09:00:43;98328.25;;;13.51;35.24
37634;BME280;32048;49.902;22.508;2023-02-18T09:03:14;98330.22;;;13.73;34.89
37634;BME280;32048;49.902;22.508;2023-02-18T09:05:41;98326.50;;;13.76;35.46
37634;BME280;32048;49.902;22.508;2023-02-18T09:08:09;98317.09;;;14.20;35.23
37634;BME280;32048;49.902;22.508;2023-02-18T09:10:36;98285.78;;;14.36;34.23
37634;BME280;32048;49.902;22.508;2023-02-18T09:13:05;98307.47;;;14.30;34.06
37634;BME280;32048;49.902;22.508;2023-02-18T09:15:32;98322.41;;;13.96;33.28
37634;BME280;32048;49.902;22.508;2023-02-18T09:17:59;98296.13;;;13.80;34.01
37634;BME280;32048;49.902;22.508;2023-02-18T09:20:26;98318.47;;;13.51;34.68
37634;BME280;32048;49.902;22.508;2023-02-18T09:22:54;98312.94;;;13.91;34.97
37634;BME280;32048;49.902;22.508;2023-02-18T09:25:55;98307.03;;;14.12;34.91
37634;BME280;32048;49.902;22.508;2023-02-18T09:29:22;98299.13;;;14.23;34.01
37634;BME280;32048;49.902;22.508;2023-02-18T09:31:49;98304.38;;;14.36;32.69
37634;BME280;32048;49.902;22.508;2023-02-18T09:34:17;98307.91;;;14.12;32.62
37634;BME280;32048;49.902;22.508;2023-02-18T09:36:44;98324.28;;;14.30;32.24
37634;BME280;32048;49.902;22.508;2023-02-18T09:39:12;98327.03;;;14.53;32.83
37634;BME280;32048;49.902;22.508;2023-02-18T09:41:47;98307.38;;;14.31;31.93
37634;BME280;32048;49.902;22.508;2023-02-18T09:47:18;98315.94;;;13.87;33.22
37634;BME280;32048;49.902;22.508;2023-02-18T09:49:51;98317.31;;;14.17;33.09
37634;BME280;32048;49.902;22.508;2023-02-18T09:52:26;98313.31;;;14.35;32.44
37634;BME280;32048;49.902;22.508;2023-02-18T09:54:55;98312.38;;;14.47;31.71
37634;BME280;32048;49.902;22.508;2023-02-18T09:57:27;98310.38;;;14.03;30.72
37634;BME280;32048;49.902;22.508;2023-02-18T10:00:10;98300.63;;;13.66;32.08
37634;BME280;32048;49.902;22.508;2023-02-18T10:02:39;98281.34;;;13.88;32.57
37634;BME280;32048;49.902;22.508;2023-02-18T10:05:12;98297.38;;;13.87;31.40
37634;BME280;32048;49.902;22.508;2023-02-18T10:07:41;98283.41;;;13.72;31.72
37634;BME280;32048;49.902;22.508;2023-02-18T10:10:30;98305.19;;;13.64;32.68
37634;BME280;32048;49.902;22.508;2023-02-18T10:13:02;98291.44;;;13.34;31.04
37634;BME280;32048;49.902;22.508;2023-02-18T10:15:32;98304.38;;;13.38;32.26
37634;BME280;32048;49.902;22.508;2023-02-18T10:18:00;98306.75;;;13.80;32.86
37634;BME280;32048;49.902;22.508;2023-02-18T10:20:29;98298.84;;;13.91;33.16
37634;BME280;32048;49.902;22.508;2023-02-18T10:22:59;98295.56;;;14.11;32.09
37634;BME280;32048;49.902;22.508;2023-02-18T10:25:28;98298.56;;;14.31;33.03
37634;BME280;32048;49.902;22.508;2023-02-18T10:27:57;98296.06;;;14.65;30.53
37634;BME280;32048;49.902;22.508;2023-02-18T10:30:32;98296.00;;;14.53;32.33
37634;BME280;32048;49.902;22.508;2023-02-18T10:35:58;98281.69;;;14.67;31.77
37634;BME280;32048;49.902;22.508;2023-02-18T10:47:05;98252.84;;;13.17;31.09
37634;BME280;32048;49.902;22.508;2023-02-18T10:50:02;98267.78;;;13.18;31.53
37634;BME280;32048;49.902;22.508;2023-02-18T10:52:35;98269.78;;;13.27;30.55
37634;BME280;32048;49.902;22.508;2023-02-18T10:55:09;98249.44;;;13.15;32.50
37634;BME280;32048;49.902;22.508;2023-02-18T10:57:52;98259.28;;;13.51;31.75
37634;BME280;32048;49.902;22.508;2023-02-18T11:00:22;98261.97;;;13.99;32.44
37634;BME280;32048;49.902;22.508;2023-02-18T11:05:35;98257.31;;;14.49;29.55
37634;BME280;32048;49.902;22.508;2023-02-18T11:08:07;98255.03;;;14.45;29.47
37634;BME280;32048;49.902;22.508;2023-02-18T11:10:38;98265.19;;;14.51;30.31
37634;BME280;32048;49.902;22.508;2023-02-18T11:13:07;98259.56;;;14.31;30.56
37634;BME280;32048;49.902;22.508;2023-02-18T11:15:35;98256.69;;;14.46;30.79
37634;BME280;32048;49.902;22.508;2023-02-18T11:18:23;98248.34;;;14.39;29.38
37634;BME280;32048;49.902;22.508;2023-02-18T11:20:56;98236.72;;;13.93;31.54
37634;BME280;32048;49.902;22.508;2023-02-18T11:23:24;98245.41;;;13.71;31.02
37634;BME280;32048;49.902;22.508;2023-02-18T11:26:12;98248.03;;;13.47;31.06
37634;BME280;32048;49.902;22.508;2023-02-18T11:31:16;98226.91;;;13.59;31.13
37634;BME280;32048;49.902;22.508;2023-02-18T11:33:59;98219.22;;;13.17;31.84
37634;BME280;32048;49.902;22.508;2023-02-18T11:36:30;98218.25;;;13.18;31.55
37634;BME280;32048;49.902;22.508;2023-02-18T11:39:00;98223.13;;;13.24;32.92
37634;BME280;32048;49.902;22.508;2023-02-18T11:41:37;98210.59;;;13.52;31.94
37634;BME280;32048;49.902;22.508;2023-02-18T11:55:14;98216.09;;;13.49;30.26
37634;BME280;32048;49.902;22.508;2023-02-18T11:57:46;98220.81;;;13.20;32.71
37634;BME280;32048;49.902;22.508;2023-02-18T12:03:21;98215.91;;;12.51;33.23
37634;BME280;32048;49.902;22.508;2023-02-18T12:05:50;98192.66;;;12.42;32.58
37634;BME280;32048;49.902;22.508;2023-02-18T12:08:27;98202.44;;;11.61;32.76
37634;BME280;32048;49.902;22.508;2023-02-18T12:11:03;98213.69;;;11.09;35.73
37634;BME280;32048;49.902;22.508;2023-02-18T12:13:41;98212.00;;;10.65;37.00
37634;BME280;32048;49.902;22.508;2023-02-18T12:25:32;98190.28;;;9.55;37.30
37634;BME280;32048;49.902;22.508;2023-02-18T12:50:48;98203.25;;;9.60;36.74
37634;BME280;32048;49.902;22.508;2023-02-18T12:54:09;98186.88;;;9.69;36.98
37634;BME280;32048;49.902;22.508;2023-02-18T13:15:43;98192.28;;;9.04;40.99
37634;BME280;32048;49.902;22.508;2023-02-18T13:18:30;98197.19;;;9.10;39.88
37634;BME280;32048;49.902;22.508;2023-02-18T13:21:03;98198.16;;;9.09;41.54
37634;BME280;32048;49.902;22.508;2023-02-18T13:23:38;98194.56;;;9.10;41.06
37634;BME280;32048;49.902;22.508;2023-02-18T13:26:10;98195.50;;;9.09;41.00
37634;BME280;32048;49.902;22.508;2023-02-18T13:31:31;98193.91;;;9.06;40.81
37634;BME280;32048;49.902;22.508;2023-02-18T13:34:09;98189.97;;;8.98;42.38
37634;BME280;32048;49.902;22.508;2023-02-18T13:39:18;98194.56;;;8.94;42.92
37634;BME280;32048;49.902;22.508;2023-02-18T13:41:48;98200.19;;;8.88;44.63
37634;BME280;32048;49.902;22.508;2023-02-18T13:46:53;98197.41;;;8.73;44.31
37634;BME280;32048;49.902;22.508;2023-02-18T13:49:27;98196.13;;;8.65;45.84
37634;BME280;32048;49.902;22.508;2023-02-18T13:52:00;98199.31;;;8.54;46.80
37634;BME280;32048;49.902;22.508;2023-02-18T13:54:41;98192.78;;;8.45;47.65
37634;BME280;32048;49.902;22.508;2023-02-18T13:57:16;98196.25;;;8.28;51.85
37634;BME280;32048;49.902;22.508;2023-02-18T13:59:48;98200.97;;;8.04;56.31
37634;BME280;32048;49.902;22.508;2023-02-18T14:04:48;98190.69;;;7.82;59.48
37634;BME280;32048;49.902;22.508;2023-02-18T14:09:58;98190.06;;;7.77;58.09
37634;BME280;32048;49.902;22.508;2023-02-18T14:12:41;98190.78;;;7.81;58.86
37634;BME280;32048;49.902;22.508;2023-02-18T14:31:24;98159.06;;;7.66;70.18
37634;BME280;32048;49.902;22.508;2023-02-18T14:39:48;98147.09;;;7.78;71.53
37634;BME280;32048;49.902;22.508;2023-02-18T14:50:50;98113.53;;;7.66;73.77
37634;BME280;32048;49.902;22.508;2023-02-18T14:53:20;98101.41;;;7.63;74.30
37634;BME280;32048;49.902;22.508;2023-02-18T14:55:50;98111.53;;;7.54;75.74
37634;BME280;32048;49.902;22.508;2023-02-18T14:58:34;98102.94;;;7.50;76.92
37634;BME280;32048;49.902;22.508;2023-02-18T15:01:27;98093.69;;;7.43;78.29
37634;BME280;32048;49.902;22.508;2023-02-18T15:03:55;98086.09;;;7.37;79.99
37634;BME280;32048;49.902;22.508;2023-02-18T15:06:34;98077.53;;;7.33;79.46
37634;BME280;32048;49.902;22.508;2023-02-18T15:09:22;98091.75;;;7.29;81.25
37634;BME280;32048;49.902;22.508;2023-02-18T15:11:55;98080.22;;;7.32;80.98
37634;BME280;32048;49.902;22.508;2023-02-18T15:14:32;98082.06;;;7.29;81.04
37634;BME280;32048;49.902;22.508;2023-02-18T15:17:00;98075.09;;;7.28;80.99
37634;BME280;32048;49.902;22.508;2023-02-18T15:19:34;98075.09;;;7.28;82.13
37634;BME280;32048;49.902;22.508;2023-02-18T15:22:03;98075.34;;;7.24;81.78
37634;BME280;32048;49.902;22.508;2023-02-18T15:27:19;98067.34;;;7.27;82.59
37634;BME280;32048;49.902;22.508;2023-02-18T15:30:29;98048.25;;;7.23;85.43
37634;BME280;32048;49.902;22.508;2023-02-18T15:32:59;98040.59;;;7.19;86.62
37634;BME280;32048;49.902;22.508;2023-02-18T15:35:29;98051.38;;;7.13;88.11
37634;BME280;32048;49.902;22.508;2023-02-18T15:37:59;98045.34;;;7.11;88.76
37634;BME280;32048;49.902;22.508;2023-02-18T15:40:30;98042.00;;;7.08;90.16
37634;BME280;32048;49.902;22.508;2023-02-18T15:43:02;98040.56;;;7.01;90.32
37634;BME280;32048;49.902;22.508;2023-02-18T15:45:37;98027.44;;;7.01;90.54
37634;BME280;32048;49.902;22.508;2023-02-18T15:48:06;98026.66;;;6.99;91.42
37634;BME280;32048;49.902;22.508;2023-02-18T15:50:37;98027.53;;;7.00;92.42
37634;BME280;32048;49.902;22.508;2023-02-18T15:53:14;98018.78;;;6.99;92.85
37634;BME280;32048;49.902;22.508;2023-02-18T15:55:45;98014.31;;;7.01;91.92
37634;BME280;32048;49.902;22.508;2023-02-18T15:58:26;98017.81;;;7.02;92.69
37634;BME280;32048;49.902;22.508;2023-02-18T16:00:56;98011.00;;;6.98;92.92
37634;BME280;32048;49.902;22.508;2023-02-18T16:03:45;98003.28;;;6.95;94.26
37634;BME280;32048;49.902;22.508;2023-02-18T16:06:22;97991.88;;;6.96;94.55
37634;BME280;32048;49.902;22.508;2023-02-18T16:09:17;97984.00;;;6.96;94.63
37634;BME280;32048;49.902;22.508;2023-02-18T16:12:05;97983.91;;;6.97;95.13
37634;BME280;32048;49.902;22.508;2023-02-18T16:14:47;97977.72;;;6.98;94.97
37634;BME280;32048;49.902;22.508;2023-02-18T16:17:23;97970.69;;;6.99;95.01
37634;BME280;32048;49.902;22.508;2023-02-18T16:22:44;97967.22;;;6.98;95.25
37634;BME280;32048;49.902;22.508;2023-02-18T16:25:14;97960.31;;;6.97;95.38
37634;BME280;32048;49.902;22.508;2023-02-18T16:28:04;97935.81;;;6.97;95.19
37634;BME280;32048;49.902;22.508;2023-02-18T16:30:33;97928.69;;;6.99;95.00
37634;BME280;32048;49.902;22.508;2023-02-18T16:33:01;97921.66;;;6.99;94.59
37634;BME280;32048;49.902;22.508;2023-02-18T16:35:29;97923.44;;;6.99;94.75
37634;BME280;32048;49.902;22.508;2023-02-18T16:38:16;97939.31;;;6.97;95.29
37634;BME280;32048;49.902;22.508;2023-02-18T16:40:44;97928.81;;;6.97;95.40
37634;BME280;32048;49.902;22.508;2023-02-18T16:43:20;97925.31;;;6.97;95.86
37634;BME280;32048;49.902;22.508;2023-02-18T16:45:53;97928.03;;;6.95;96.58
37634;BME280;32048;49.902;22.508;2023-02-18T16:48:38;97919.22;;;6.96;97.03
37634;BME280;32048;49.902;22.508;2023-02-18T16:51:11;97916.66;;;6.95;97.95
37634;BME280;32048;49.902;22.508;2023-02-18T16:53:39;97912.19;;;6.97;98.20
37634;BME280;32048;49.902;22.508;2023-02-18T16:56:15;97900.91;;;6.95;98.25
37634;BME280;32048;49.902;22.508;2023-02-18T16:58:42;97900.13;;;6.93;99.24
37634;BME280;32048;49.902;22.508;2023-02-18T17:01:26;97895.22;;;6.86;100.00